createdAt,value
2018-12-21T00:00:57.647Z,4.71
2018-12-21T00:01:57.754Z,4.71
2018-12-21T00:02:57.725Z,4.72
2018-12-21T00:03:57.682Z,4.72
2018-12-21T00:04:57.815Z,4.7
2018-12-21T00:05:57.737Z,4.74
2018-12-21T00:06:57.788Z,4.73
2018-12-21T00:07:58.984Z,4.73
2018-12-21T00:08:57.878Z,4.72
2018-12-21T00:09:58.152Z,4.68
2018-12-21T00:10:57.672Z,4.71
2018-12-21T00:11:57.757Z,4.66
2018-12-21T00:12:57.587Z,4.72
2018-12-21T00:13:57.638Z,4.68
2018-12-21T00:14:57.678Z,4.7
2018-12-21T00:15:57.708Z,4.7
2018-12-21T00:16:57.725Z,4.72
2018-12-21T00:17:57.612Z,4.71
2018-12-21T00:18:57.705Z,4.69
2018-12-21T00:19:57.623Z,4.69
2018-12-21T00:20:57.565Z,4.74
2018-12-21T00:21:57.604Z,4.73
2018-12-21T00:22:57.630Z,4.68
2018-12-21T00:23:57.789Z,4.75
2018-12-21T00:24:57.753Z,4.74
2018-12-21T00:25:57.621Z,4.77
2018-12-21T00:26:57.557Z,4.83
2018-12-21T00:27:57.749Z,4.8
2018-12-21T00:28:57.605Z,4.78
2018-12-21T00:29:57.714Z,4.75
2018-12-21T00:30:57.686Z,4.78
2018-12-21T00:31:57.609Z,4.79
2018-12-21T00:32:57.773Z,4.8
2018-12-21T00:33:57.571Z,4.75
2018-12-21T00:34:57.637Z,4.77
2018-12-21T00:35:57.603Z,4.8
2018-12-21T00:36:57.576Z,4.78
2018-12-21T00:37:57.635Z,4.82
2018-12-21T00:38:57.589Z,4.79
2018-12-21T00:39:57.694Z,4.79
2018-12-21T00:40:57.773Z,4.79
2018-12-21T00:41:57.562Z,4.8
2018-12-21T00:42:57.547Z,4.81
2018-12-21T00:43:57.658Z,4.8
2018-12-21T00:44:57.721Z,4.83
2018-12-21T00:45:57.738Z,4.82
2018-12-21T00:46:57.784Z,4.79
2018-12-21T00:47:57.857Z,4.82
2018-12-21T00:48:57.698Z,4.78
2018-12-21T00:49:57.809Z,4.79
2018-12-21T00:50:57.709Z,4.79
2018-12-21T00:51:57.680Z,4.75
2018-12-21T00:52:57.553Z,4.77
2018-12-21T00:53:57.554Z,4.84
2018-12-21T00:54:57.714Z,4.85
2018-12-21T00:55:57.601Z,4.85
2018-12-21T00:56:57.527Z,4.84
2018-12-21T00:57:57.659Z,4.85
2018-12-21T00:58:57.555Z,4.83
2018-12-21T00:59:57.697Z,4.85
2018-12-21T01:00:57.571Z,4.85
2018-12-21T01:01:57.607Z,4.88
2018-12-21T01:02:57.547Z,4.87
2018-12-21T01:03:57.523Z,4.83
2018-12-21T01:04:57.574Z,4.83
2018-12-21T01:05:57.688Z,4.81
2018-12-21T01:06:57.524Z,4.8
2018-12-21T01:07:57.508Z,4.84
2018-12-21T01:08:57.623Z,4.85
2018-12-21T01:09:57.578Z,4.86
2018-12-21T01:10:57.576Z,4.85
2018-12-21T01:11:57.525Z,4.87
2018-12-21T01:12:57.731Z,4.83
2018-12-21T01:13:57.572Z,4.83
2018-12-21T01:14:57.541Z,4.81
2018-12-21T01:15:57.735Z,4.84
2018-12-21T01:16:58.086Z,4.84
2018-12-21T01:17:57.774Z,4.86
2018-12-21T01:18:57.542Z,4.85
2018-12-21T01:19:57.686Z,4.89
2018-12-21T01:20:57.887Z,4.91
2018-12-21T01:21:57.542Z,4.92
2018-12-21T01:22:57.582Z,4.93
2018-12-21T01:23:57.506Z,4.94
2018-12-21T01:24:57.704Z,4.96
2018-12-21T01:25:57.840Z,4.97
2018-12-21T01:26:57.753Z,5.01
2018-12-21T01:27:57.686Z,5.02
2018-12-21T01:28:57.573Z,5.01
2018-12-21T01:29:57.617Z,4.99
2018-12-21T01:30:57.660Z,4.99
2018-12-21T01:31:57.562Z,5
2018-12-21T01:32:57.723Z,5.02
2018-12-21T01:33:57.680Z,5.04
2018-12-21T01:34:57.538Z,5.05
2018-12-21T01:35:57.571Z,5.04
2018-12-21T01:36:57.579Z,5.07
2018-12-21T01:37:57.571Z,5.05
2018-12-21T01:38:57.507Z,5.11
2018-12-21T01:39:57.500Z,5.07
2018-12-21T01:40:57.572Z,5.1
2018-12-21T01:41:58.048Z,5.06
2018-12-21T01:42:57.488Z,5.18
2018-12-21T01:43:57.598Z,5.16
2018-12-21T01:44:57.778Z,5.17
2018-12-21T01:45:58.351Z,5.13
2018-12-21T01:46:57.692Z,5.17
2018-12-21T01:47:57.505Z,5.17
2018-12-21T01:48:58.304Z,5.15
2018-12-21T01:49:57.481Z,5.13
2018-12-21T01:50:57.478Z,5.1
2018-12-21T01:51:57.508Z,5.09
2018-12-21T01:52:57.540Z,5.09
2018-12-21T01:53:57.604Z,5.06
2018-12-21T01:54:57.616Z,5.04
2018-12-21T01:55:57.708Z,5.06
2018-12-21T01:56:57.636Z,5.12
2018-12-21T01:57:57.702Z,5.1
2018-12-21T01:58:57.685Z,5.05
2018-12-21T01:59:57.669Z,5.05
2018-12-21T02:00:57.450Z,5.06
2018-12-21T02:01:57.850Z,5.06
2018-12-21T02:02:57.681Z,5.05
2018-12-21T02:03:57.636Z,5.05
2018-12-21T02:04:58.272Z,5.05
2018-12-21T02:05:57.810Z,5.07
2018-12-21T02:06:57.558Z,5.07
2018-12-21T02:07:57.618Z,5.05
2018-12-21T02:08:57.683Z,5.08
2018-12-21T02:09:57.426Z,5.1
2018-12-21T02:10:57.668Z,5.07
2018-12-21T02:11:57.557Z,5.05
2018-12-21T02:12:57.799Z,5.07
2018-12-21T02:13:57.486Z,5.08
2018-12-21T02:14:57.452Z,5.09
2018-12-21T02:15:57.612Z,5.07
2018-12-21T02:16:57.437Z,5.06
2018-12-21T02:17:57.674Z,5.11
2018-12-21T02:18:57.539Z,5.13
2018-12-21T02:19:57.805Z,5.07
2018-12-21T02:20:57.496Z,5.1
2018-12-21T02:21:57.742Z,5.1
2018-12-21T02:22:57.582Z,5.08
2018-12-21T02:23:57.758Z,5.11
2018-12-21T02:24:57.930Z,5.12
2018-12-21T02:25:58.257Z,5.14
2018-12-21T02:26:57.482Z,5.1
2018-12-21T02:27:57.432Z,5.04
2018-12-21T02:28:57.419Z,5.02
2018-12-21T02:29:57.476Z,5.05
2018-12-21T02:30:57.681Z,5.03
2018-12-21T02:31:57.579Z,5.1
2018-12-21T02:32:57.607Z,5.1
2018-12-21T02:33:57.430Z,5.07
2018-12-21T02:34:57.578Z,5.12
2018-12-21T02:35:57.412Z,5.08
2018-12-21T02:36:57.410Z,5.07
2018-12-21T02:37:57.455Z,5.14
2018-12-21T02:38:57.398Z,5.08
2018-12-21T02:39:57.443Z,5.08
2018-12-21T02:40:57.463Z,5.09
2018-12-21T02:41:57.572Z,5.12
2018-12-21T02:42:57.418Z,5.09
2018-12-21T02:43:57.510Z,5.13
2018-12-21T02:44:57.367Z,5.13
2018-12-21T02:45:57.458Z,5.11
2018-12-21T02:46:57.438Z,5.13
2018-12-21T02:47:57.548Z,5.1
2018-12-21T02:48:57.400Z,5.07
2018-12-21T02:49:57.437Z,5.1
2018-12-21T02:50:57.382Z,5.1
2018-12-21T02:52:06.017Z,5.1
2018-12-21T02:52:57.413Z,5.05
2018-12-21T02:53:57.445Z,5.06
2018-12-21T02:54:57.648Z,5.04
2018-12-21T02:55:57.463Z,5.07
2018-12-21T02:56:57.486Z,5.06
2018-12-21T02:57:57.462Z,5.05
2018-12-21T02:58:57.592Z,5.05
2018-12-21T02:59:57.424Z,5.03
2018-12-21T03:00:57.416Z,5.06
2018-12-21T03:01:57.422Z,5.02
2018-12-21T03:02:57.597Z,5.05
2018-12-21T03:03:57.848Z,5.08
2018-12-21T03:04:57.549Z,5.07
2018-12-21T03:05:57.562Z,5.07
2018-12-21T03:06:57.666Z,5.05
2018-12-21T03:07:57.388Z,4.99
2018-12-21T03:08:57.593Z,5.04
2018-12-21T03:09:57.432Z,5.05
2018-12-21T03:10:57.414Z,5.08
2018-12-21T03:11:57.483Z,5.06
2018-12-21T03:12:57.401Z,5.03
2018-12-21T03:13:57.360Z,5.02
2018-12-21T03:14:57.610Z,5
2018-12-21T03:15:57.536Z,5
2018-12-21T03:16:57.668Z,5.03
2018-12-21T03:17:57.490Z,5.05
2018-12-21T03:18:57.525Z,5.03
2018-12-21T03:19:57.620Z,5.05
2018-12-21T03:20:57.359Z,5.02
2018-12-21T03:21:57.557Z,5.04
2018-12-21T03:22:57.479Z,5.03
2018-12-21T03:23:57.449Z,5.01
2018-12-21T03:24:57.360Z,5.01
2018-12-21T03:25:57.573Z,5.01
2018-12-21T03:26:57.519Z,4.98
2018-12-21T03:27:57.551Z,5.01
2018-12-21T03:28:57.372Z,5
2018-12-21T03:29:57.667Z,4.99
2018-12-21T03:30:57.438Z,5.02
2018-12-21T03:31:57.439Z,5.01
2018-12-21T03:32:57.427Z,5.03
2018-12-21T03:33:57.371Z,5.04
2018-12-21T03:34:57.708Z,5.04
2018-12-21T03:35:57.353Z,5.04
2018-12-21T03:36:57.492Z,5.03
2018-12-21T03:37:57.397Z,5.06
2018-12-21T03:38:57.654Z,5.04
2018-12-21T03:39:57.340Z,5.06
2018-12-21T03:40:58.156Z,5.05
2018-12-21T03:41:58.200Z,5.03
2018-12-21T03:42:57.412Z,5.09
2018-12-21T03:43:57.536Z,5.06
2018-12-21T03:44:57.319Z,5.02
2018-12-21T03:45:57.684Z,5.02
2018-12-21T03:46:57.462Z,5.05
2018-12-21T03:47:57.341Z,5.02
2018-12-21T03:48:57.469Z,5.04
2018-12-21T03:49:57.951Z,5
2018-12-21T03:50:57.490Z,5.01
2018-12-21T03:51:57.317Z,5.03
2018-12-21T03:52:57.351Z,4.99
2018-12-21T03:53:57.334Z,4.98
2018-12-21T03:54:57.498Z,4.92
2018-12-21T03:55:57.402Z,4.97
2018-12-21T03:56:57.291Z,4.97
2018-12-21T03:57:57.468Z,4.95
2018-12-21T03:58:57.530Z,4.96
2018-12-21T03:59:57.411Z,4.97
2018-12-21T04:00:57.473Z,4.99
2018-12-21T04:01:57.321Z,4.97
2018-12-21T04:02:57.823Z,4.99
2018-12-21T04:03:58.176Z,5.01
2018-12-21T04:04:57.760Z,4.99
2018-12-21T04:05:57.315Z,5.04
2018-12-21T04:06:57.379Z,5.06
2018-12-21T04:07:57.395Z,5.04
2018-12-21T04:08:57.479Z,4.99
2018-12-21T04:09:57.530Z,4.97
2018-12-21T04:10:57.421Z,4.97
2018-12-21T04:11:57.397Z,4.96
2018-12-21T04:12:57.330Z,4.96
2018-12-21T04:13:57.628Z,4.9
2018-12-21T04:14:57.348Z,4.94
2018-12-21T04:15:57.444Z,4.99
2018-12-21T04:16:57.409Z,5
2018-12-21T04:17:57.325Z,4.95
2018-12-21T04:18:57.382Z,4.96
2018-12-21T04:19:57.460Z,5.03
2018-12-21T04:20:57.339Z,4.94
2018-12-21T04:21:57.346Z,5
2018-12-21T04:22:57.343Z,4.98
2018-12-21T04:23:57.394Z,4.98
2018-12-21T04:24:57.381Z,4.99
2018-12-21T04:25:57.551Z,4.99
2018-12-21T04:26:57.447Z,5.04
2018-12-21T04:27:57.276Z,5.03
2018-12-21T04:28:57.372Z,5.03
2018-12-21T04:29:57.272Z,4.99
2018-12-21T04:30:57.344Z,5.03
2018-12-21T04:31:57.282Z,4.95
2018-12-21T04:32:57.266Z,4.95
2018-12-21T04:33:57.309Z,4.96
2018-12-21T04:34:57.272Z,4.95
2018-12-21T04:35:57.348Z,4.96
2018-12-21T04:36:57.314Z,4.95
2018-12-21T04:37:57.498Z,4.96
2018-12-21T04:38:57.619Z,4.95
2018-12-21T04:39:57.559Z,4.94
2018-12-21T04:40:57.422Z,4.98
2018-12-21T04:41:57.341Z,4.96
2018-12-21T04:42:57.359Z,4.97
2018-12-21T04:43:57.443Z,4.97
2018-12-21T04:44:57.278Z,4.94
2018-12-21T04:45:57.449Z,4.98
2018-12-21T04:46:57.285Z,4.99
2018-12-21T04:47:57.346Z,4.99
2018-12-21T04:48:57.374Z,4.99
2018-12-21T04:49:57.263Z,4.98
2018-12-21T04:50:57.518Z,5
2018-12-21T04:51:58.073Z,4.96
2018-12-21T04:52:57.499Z,4.91
2018-12-21T04:53:57.776Z,4.91
2018-12-21T04:54:57.368Z,4.91
2018-12-21T04:55:57.245Z,4.86
2018-12-21T04:56:57.432Z,4.88
2018-12-21T04:57:57.391Z,4.84
2018-12-21T04:58:57.358Z,4.85
2018-12-21T04:59:57.309Z,4.83
2018-12-21T05:00:57.397Z,4.87
2018-12-21T05:01:57.334Z,4.88
2018-12-21T05:02:57.336Z,4.86
2018-12-21T05:03:57.239Z,4.87
2018-12-21T05:04:57.413Z,4.87
2018-12-21T05:05:57.636Z,4.84
2018-12-21T05:06:58.796Z,4.84
2018-12-21T05:07:57.361Z,4.82
2018-12-21T05:08:57.416Z,4.86
2018-12-21T05:09:57.541Z,4.79
2018-12-21T05:10:57.191Z,4.84
2018-12-21T05:11:58.061Z,4.85
2018-12-21T05:12:57.598Z,4.86
2018-12-21T05:13:57.207Z,4.83
2018-12-21T05:14:57.217Z,4.84
2018-12-21T05:15:57.461Z,4.86
2018-12-21T05:16:57.233Z,4.85
2018-12-21T05:17:57.370Z,4.82
2018-12-21T05:18:57.755Z,4.83
2018-12-21T05:19:57.361Z,4.88
2018-12-21T05:20:57.467Z,4.84
2018-12-21T05:21:57.268Z,4.89
2018-12-21T05:22:57.435Z,4.89
2018-12-21T05:23:57.917Z,4.89
2018-12-21T05:24:57.747Z,4.9
2018-12-21T05:25:57.568Z,4.86
2018-12-21T05:26:57.273Z,4.8
2018-12-21T05:27:57.768Z,4.86
2018-12-21T05:28:57.523Z,4.92
2018-12-21T05:29:57.291Z,4.91
2018-12-21T05:30:57.232Z,4.94
2018-12-21T05:31:57.372Z,4.94
2018-12-21T05:32:57.432Z,4.9
2018-12-21T05:33:57.384Z,4.85
2018-12-21T05:34:57.343Z,4.9
2018-12-21T05:35:57.373Z,4.92
2018-12-21T05:36:57.602Z,4.81
2018-12-21T05:37:58.061Z,4.93
2018-12-21T05:38:57.435Z,4.96
2018-12-21T05:39:57.313Z,5.03
2018-12-21T05:40:57.247Z,5.02
2018-12-21T05:41:57.395Z,5.06
2018-12-21T05:42:57.214Z,5.11
2018-12-21T05:43:58.043Z,5.16
2018-12-21T05:44:57.603Z,5.16
2018-12-21T05:45:57.187Z,5.2
2018-12-21T05:46:57.244Z,5.25
2018-12-21T05:47:57.350Z,5.31
2018-12-21T05:48:57.267Z,5.36
2018-12-21T05:49:57.267Z,5.33
2018-12-21T05:50:57.459Z,5.39
2018-12-21T05:51:57.382Z,5.36
2018-12-21T05:53:01.299Z,5.4
2018-12-21T05:53:57.494Z,5.48
2018-12-21T05:54:57.338Z,5.46
2018-12-21T05:55:57.394Z,5.51
2018-12-21T05:56:57.378Z,5.48
2018-12-21T05:57:57.171Z,5.59
2018-12-21T05:58:57.274Z,5.52
2018-12-21T05:59:57.212Z,5.54
2018-12-21T06:00:57.171Z,5.55
2018-12-21T06:01:57.173Z,5.58
2018-12-21T06:02:57.190Z,5.6
2018-12-21T06:03:57.143Z,5.59
2018-12-21T06:04:57.159Z,5.61
2018-12-21T06:05:57.178Z,5.64
2018-12-21T06:06:57.204Z,5.66
2018-12-21T06:07:57.222Z,5.64
2018-12-21T06:08:57.266Z,5.67
2018-12-21T06:09:57.206Z,5.67
2018-12-21T06:10:57.516Z,5.73
2018-12-21T06:11:57.175Z,5.65
2018-12-21T06:12:57.172Z,5.76
2018-12-21T06:13:57.151Z,5.66
2018-12-21T06:14:57.144Z,5.7
2018-12-21T06:15:57.146Z,5.77
2018-12-21T06:16:57.205Z,5.68
2018-12-21T06:17:57.417Z,5.71
2018-12-21T06:18:57.203Z,5.85
2018-12-21T06:19:57.190Z,5.83
2018-12-21T06:20:57.437Z,5.76
2018-12-21T06:21:57.218Z,5.85
2018-12-21T06:22:57.695Z,5.86
2018-12-21T06:23:57.322Z,5.87
2018-12-21T06:24:57.123Z,5.9
2018-12-21T06:25:57.163Z,5.9
2018-12-21T06:26:57.147Z,5.95
2018-12-21T06:27:57.194Z,5.94
2018-12-21T06:28:57.125Z,5.97
2018-12-21T06:29:57.382Z,5.98
2018-12-21T06:30:57.609Z,6.01
2018-12-21T06:31:57.109Z,5.97
2018-12-21T06:32:57.169Z,5.97
2018-12-21T06:33:57.444Z,6.05
2018-12-21T06:34:57.205Z,6.03
2018-12-21T06:35:57.253Z,6.07
2018-12-21T06:36:57.158Z,6.13
2018-12-21T06:37:57.339Z,6.08
2018-12-21T06:38:57.136Z,6.16
2018-12-21T06:39:57.483Z,6.14
2018-12-21T06:40:57.409Z,6.1
2018-12-21T06:41:57.260Z,6.18
2018-12-21T06:42:57.496Z,6.16
2018-12-21T06:43:57.273Z,6.21
2018-12-21T06:44:57.178Z,6.19
2018-12-21T06:45:57.090Z,6.17
2018-12-21T06:46:57.277Z,6.19
2018-12-21T06:47:57.537Z,6.2
2018-12-21T06:48:57.157Z,6.21
2018-12-21T06:49:57.350Z,6.19
2018-12-21T06:50:57.227Z,6.2
2018-12-21T06:51:57.125Z,6.2
2018-12-21T06:52:57.215Z,6.26
2018-12-21T06:53:57.184Z,6.22
2018-12-21T06:54:57.215Z,6.25
2018-12-21T06:55:57.631Z,6.23
2018-12-21T06:56:57.345Z,6.25
2018-12-21T06:57:57.324Z,6.23
2018-12-21T06:58:57.106Z,6.27
2018-12-21T06:59:57.148Z,6.27
2018-12-21T07:00:57.269Z,6.28
2018-12-21T07:01:57.123Z,6.27
2018-12-21T07:02:57.134Z,6.26
2018-12-21T07:03:57.103Z,6.29
2018-12-21T07:04:57.423Z,6.31
2018-12-21T07:05:57.301Z,6.27
2018-12-21T07:06:57.572Z,6.33
2018-12-21T07:07:57.160Z,6.32
2018-12-21T07:08:57.095Z,6.3
2018-12-21T07:09:57.098Z,6.3
2018-12-21T07:10:57.283Z,6.38
2018-12-21T07:11:57.448Z,6.32
2018-12-21T07:12:57.858Z,6.36
2018-12-21T07:13:57.079Z,6.34
2018-12-21T07:14:57.059Z,6.36
2018-12-21T07:15:57.069Z,6.39
2018-12-21T07:16:57.274Z,6.37
2018-12-21T07:17:57.132Z,6.37
2018-12-21T07:18:57.134Z,6.4
2018-12-21T07:19:57.325Z,6.39
2018-12-21T07:20:57.337Z,6.4
2018-12-21T07:21:57.072Z,6.39
2018-12-21T07:22:57.235Z,6.41
2018-12-21T07:23:57.292Z,6.37
2018-12-21T07:24:57.318Z,6.36
2018-12-21T07:25:57.132Z,6.37
2018-12-21T07:26:57.876Z,6.45
2018-12-21T07:27:57.056Z,6.44
2018-12-21T07:28:57.441Z,6.42
2018-12-21T07:29:57.888Z,6.47
2018-12-21T07:30:57.159Z,6.47
2018-12-21T07:31:57.224Z,6.47
2018-12-21T07:32:57.205Z,6.42
2018-12-21T07:33:57.051Z,6.46
2018-12-21T07:34:57.471Z,6.49
2018-12-21T07:35:57.389Z,6.49
2018-12-21T07:36:57.245Z,6.47
2018-12-21T07:37:57.170Z,6.51
2018-12-21T07:38:57.155Z,6.54
2018-12-21T07:39:57.148Z,6.51
2018-12-21T07:40:57.068Z,6.53
2018-12-21T07:41:57.265Z,6.48
2018-12-21T07:42:57.202Z,6.49
2018-12-21T07:43:57.141Z,6.51
2018-12-21T07:44:57.228Z,6.54
2018-12-21T07:45:57.120Z,6.56
2018-12-21T07:46:57.197Z,6.55
2018-12-21T07:47:57.086Z,6.52
2018-12-21T07:48:57.102Z,6.56
2018-12-21T07:49:57.250Z,6.53
2018-12-21T07:50:57.042Z,6.59
2018-12-21T07:51:57.119Z,6.6
2018-12-21T07:52:57.094Z,6.61
2018-12-21T07:53:57.187Z,6.6
2018-12-21T07:54:57.332Z,6.56
2018-12-21T07:55:57.077Z,6.57
2018-12-21T07:56:57.155Z,6.61
2018-12-21T07:57:58.880Z,6.62
2018-12-21T07:58:57.855Z,6.66
2018-12-21T07:59:57.258Z,6.67
2018-12-21T08:00:57.264Z,6.64
2018-12-21T08:01:57.184Z,6.65
2018-12-21T08:02:57.021Z,6.58
2018-12-21T08:03:57.259Z,6.63
2018-12-21T08:04:57.654Z,6.65
2018-12-21T08:05:57.195Z,6.66
2018-12-21T08:06:57.245Z,6.68
2018-12-21T08:07:57.334Z,6.66
2018-12-21T08:08:57.164Z,6.62
2018-12-21T08:09:57.447Z,6.6
2018-12-21T08:10:57.306Z,6.67
2018-12-21T08:11:57.123Z,6.67
2018-12-21T08:12:57.224Z,6.7
2018-12-21T08:13:57.259Z,6.67
2018-12-21T08:14:57.174Z,6.66
2018-12-21T08:15:57.081Z,6.66
2018-12-21T08:16:57.091Z,6.65
2018-12-21T08:17:57.529Z,6.66
2018-12-21T08:18:57.308Z,6.69
2018-12-21T08:19:57.160Z,6.69
2018-12-21T08:20:57.015Z,6.69
2018-12-21T08:21:57.042Z,6.69
2018-12-21T08:22:57.003Z,6.69
2018-12-21T08:23:57.139Z,6.68
2018-12-21T08:24:57.265Z,6.72
2018-12-21T08:25:57.448Z,6.72
2018-12-21T08:26:57.073Z,6.69
2018-12-21T08:27:57.813Z,6.71
2018-12-21T08:28:57.070Z,6.71
2018-12-21T08:29:57.128Z,6.73
2018-12-21T08:30:57.374Z,6.74
2018-12-21T08:31:57.815Z,6.69
2018-12-21T08:32:57.237Z,6.7
2018-12-21T08:33:57.096Z,6.72
2018-12-21T08:34:57.101Z,6.67
2018-12-21T08:35:57.216Z,6.71
2018-12-21T08:36:57.279Z,6.68
2018-12-21T08:37:57.003Z,6.68
2018-12-21T08:38:56.952Z,6.67
2018-12-21T08:39:57.214Z,6.76
2018-12-21T08:40:57.123Z,6.8
2018-12-21T08:41:57.223Z,6.71
2018-12-21T08:42:57.248Z,6.74
2018-12-21T08:43:57.264Z,6.72
2018-12-21T08:44:57.911Z,6.67
2018-12-21T08:45:57.259Z,6.73
2018-12-21T08:46:57.796Z,6.72
2018-12-21T08:47:57.156Z,6.82
2018-12-21T08:48:57.198Z,6.78
2018-12-21T08:49:57.452Z,6.77
2018-12-21T08:50:57.189Z,6.72
2018-12-21T08:51:56.963Z,6.75
2018-12-21T08:52:57.106Z,6.81
2018-12-21T08:53:57.177Z,6.77
2018-12-21T08:54:57.114Z,6.75
2018-12-21T08:55:57.325Z,6.74
2018-12-21T08:56:56.949Z,6.79
2018-12-21T08:57:57.782Z,6.8
2018-12-21T08:58:57.180Z,6.79
2018-12-21T08:59:57.265Z,6.79
2018-12-21T09:00:57.122Z,6.74
2018-12-21T09:01:57.524Z,6.75
2018-12-21T09:02:57.125Z,6.78
2018-12-21T09:03:57.224Z,6.82
2018-12-21T09:04:57.019Z,6.84
2018-12-21T09:05:57.221Z,6.85
2018-12-21T09:06:57.195Z,6.79
2018-12-21T09:07:57.357Z,6.86
2018-12-21T09:08:57.209Z,6.85
2018-12-21T09:09:56.965Z,6.8
2018-12-21T09:10:57.049Z,6.82
2018-12-21T09:11:57.115Z,6.88
2018-12-21T09:12:56.964Z,6.85
2018-12-21T09:13:57.194Z,6.91
2018-12-21T09:14:56.932Z,6.93
2018-12-21T09:15:57.391Z,6.94
2018-12-21T09:16:57.159Z,6.95
2018-12-21T09:17:56.928Z,6.94
2018-12-21T09:18:57.079Z,6.93
2018-12-21T09:19:57.046Z,7.01
2018-12-21T09:20:57.052Z,7.02
2018-12-21T09:21:57.060Z,7.05
2018-12-21T09:22:56.982Z,6.98
2018-12-21T09:24:01.637Z,7.05
2018-12-21T09:24:57.286Z,7.05
2018-12-21T09:25:57.024Z,7.07
2018-12-21T09:26:56.924Z,7.08
2018-12-21T09:27:57.257Z,7.09
2018-12-21T09:28:56.886Z,7.07
2018-12-21T09:29:57.104Z,7.14
2018-12-21T09:30:57.112Z,7.17
2018-12-21T09:32:05.646Z,7.15
2018-12-21T09:32:56.906Z,7.17
2018-12-21T09:33:56.909Z,7.14
2018-12-21T09:34:57.293Z,7.16
2018-12-21T09:35:57.091Z,7.2
2018-12-21T09:36:56.971Z,7.18
2018-12-21T09:37:57.095Z,7.21
2018-12-21T09:38:56.881Z,7.24
2018-12-21T09:39:56.981Z,7.26
2018-12-21T09:40:57.049Z,7.25
2018-12-21T09:41:57.023Z,7.31
2018-12-21T09:42:56.931Z,7.34
2018-12-21T09:43:56.882Z,7.34
2018-12-21T09:44:57.192Z,7.34
2018-12-21T09:45:57.167Z,7.36
2018-12-21T09:46:57.159Z,7.39
2018-12-21T09:47:57.110Z,7.37
2018-12-21T09:48:57.259Z,7.4
2018-12-21T09:49:57.062Z,7.38
2018-12-21T09:50:57.205Z,7.43
2018-12-21T09:51:57.129Z,7.43
2018-12-21T09:52:57.697Z,7.41
2018-12-21T09:53:57.066Z,7.45
2018-12-21T09:54:57.074Z,7.49
2018-12-21T09:55:56.889Z,7.53
2018-12-21T09:56:56.854Z,7.54
2018-12-21T09:57:57.090Z,7.55
2018-12-21T09:58:57.049Z,7.55
2018-12-21T09:59:56.946Z,7.59
2018-12-21T10:00:57.761Z,7.55
2018-12-21T10:01:56.892Z,7.63
2018-12-21T10:02:56.910Z,7.6
2018-12-21T10:03:57.034Z,7.62
2018-12-21T10:04:56.926Z,7.56
2018-12-21T10:05:57.131Z,7.62
2018-12-21T10:06:57.263Z,7.6
2018-12-21T10:07:56.850Z,7.59
2018-12-21T10:08:57.049Z,7.61
2018-12-21T10:09:57.692Z,7.67
2018-12-21T10:10:57.040Z,7.62
2018-12-21T10:11:57.247Z,7.65
2018-12-21T10:12:57.074Z,7.65
2018-12-21T10:13:57.061Z,7.71
2018-12-21T10:14:57.151Z,7.7
2018-12-21T10:15:57.208Z,7.69
2018-12-21T10:16:56.925Z,7.7
2018-12-21T10:17:57.656Z,7.72
2018-12-21T10:18:57.095Z,7.71
2018-12-21T10:19:57.694Z,7.74
2018-12-21T10:20:56.885Z,7.8
2018-12-21T10:21:56.891Z,7.76
2018-12-21T10:22:56.901Z,7.76
2018-12-21T10:23:57.131Z,7.79
2018-12-21T10:24:57.038Z,7.82
2018-12-21T10:25:57.067Z,7.73
2018-12-21T10:26:57.167Z,7.74
2018-12-21T10:27:56.989Z,7.79
2018-12-21T10:28:56.841Z,7.8
2018-12-21T10:29:56.875Z,7.73
2018-12-21T10:30:57.661Z,7.75
2018-12-21T10:31:56.897Z,7.8
2018-12-21T10:32:57.639Z,7.88
2018-12-21T10:33:57.001Z,7.79
2018-12-21T10:34:57.141Z,7.82
2018-12-21T10:35:56.841Z,7.81
2018-12-21T10:36:57.676Z,7.86
2018-12-21T10:37:57.684Z,7.8
2018-12-21T10:38:57.111Z,7.84
2018-12-21T10:39:57.217Z,7.79
2018-12-21T10:40:57.180Z,7.83
2018-12-21T10:41:57.219Z,7.8
2018-12-21T10:42:56.826Z,7.85
2018-12-21T10:43:57.625Z,7.83
2018-12-21T10:44:56.589Z,7.89
2018-12-21T10:45:56.854Z,7.94
2018-12-21T10:46:57.608Z,7.87
2018-12-21T10:47:57.068Z,7.91
2018-12-21T10:48:57.042Z,7.95
2018-12-21T10:49:56.815Z,7.96
2018-12-21T10:50:56.815Z,7.94
2018-12-21T10:51:57.631Z,7.93
2018-12-21T10:52:56.923Z,7.94
2018-12-21T10:53:57.047Z,7.97
2018-12-21T10:54:57.150Z,7.96
2018-12-21T10:55:57.123Z,8.02
2018-12-21T10:56:57.184Z,8.03
2018-12-21T10:57:56.934Z,8.03
2018-12-21T10:58:56.838Z,8.01
2018-12-21T10:59:57.083Z,8.03
2018-12-21T11:00:56.784Z,7.98
2018-12-21T11:01:56.766Z,8.02
2018-12-21T11:02:56.786Z,8.02
2018-12-21T11:03:56.805Z,8.03
2018-12-21T11:04:56.783Z,8.01
2018-12-21T11:05:56.792Z,8.07
2018-12-21T11:06:56.811Z,8.05
2018-12-21T11:07:56.786Z,8.07
2018-12-21T11:08:56.807Z,8.13
2018-12-21T11:09:56.844Z,8.11
2018-12-21T11:10:57.029Z,8.1
2018-12-21T11:11:56.780Z,8.11
2018-12-21T11:12:56.729Z,8.13
2018-12-21T11:13:56.790Z,8.15
2018-12-21T11:14:56.735Z,8.16
2018-12-21T11:15:56.827Z,8.16
2018-12-21T11:16:56.812Z,8.16
2018-12-21T11:17:56.871Z,8.19
2018-12-21T11:18:57.254Z,8.19
2018-12-21T11:19:57.027Z,8.22
2018-12-21T11:20:57.080Z,8.23
2018-12-21T11:21:57.001Z,8.27
2018-12-21T11:22:57.107Z,8.33
2018-12-21T11:23:57.100Z,8.28
2018-12-21T11:24:57.418Z,8.31
2018-12-21T11:25:56.722Z,8.34
2018-12-21T11:26:56.746Z,8.35
2018-12-21T11:27:56.855Z,8.33
2018-12-21T11:28:56.745Z,8.38
2018-12-21T11:29:56.987Z,8.45
2018-12-21T11:30:57.001Z,8.37
2018-12-21T11:31:56.722Z,8.43
2018-12-21T11:32:57.436Z,8.44
2018-12-21T11:33:56.730Z,8.38
2018-12-21T11:34:56.958Z,8.44
2018-12-21T11:35:56.974Z,8.46
2018-12-21T11:36:56.748Z,8.42
2018-12-21T11:37:57.180Z,8.46
2018-12-21T11:38:56.800Z,8.44
2018-12-21T11:39:56.772Z,8.46
2018-12-21T11:40:57.076Z,8.5
2018-12-21T11:41:57.068Z,8.47
2018-12-21T11:42:57.033Z,8.52
2018-12-21T11:43:56.843Z,8.48
2018-12-21T11:44:56.831Z,8.48
2018-12-21T11:45:57.012Z,8.52
2018-12-21T11:46:57.562Z,8.53
2018-12-21T11:47:56.957Z,8.49
2018-12-21T11:48:56.850Z,8.48
2018-12-21T11:49:56.715Z,8.47
2018-12-21T11:50:56.821Z,8.51
2018-12-21T11:51:57.019Z,8.51
2018-12-21T11:52:56.802Z,8.54
2018-12-21T11:53:56.755Z,8.56
2018-12-21T11:54:59.170Z,8.56
2018-12-21T11:55:57.546Z,8.52
2018-12-21T11:56:56.749Z,8.52
2018-12-21T11:57:56.925Z,8.55
2018-12-21T11:58:56.896Z,8.52
2018-12-21T11:59:56.752Z,8.57
2018-12-21T12:00:57.522Z,8.55
2018-12-21T12:01:57.547Z,8.58
2018-12-21T12:02:56.839Z,8.53
2018-12-21T12:03:57.583Z,8.55
2018-12-21T12:04:56.703Z,8.55
2018-12-21T12:05:56.887Z,8.59
2018-12-21T12:06:57.069Z,8.61
2018-12-21T12:07:57.077Z,8.59
2018-12-21T12:08:56.712Z,8.58
2018-12-21T12:09:56.721Z,8.56
2018-12-21T12:10:56.752Z,8.57
2018-12-21T12:11:56.922Z,8.57
2018-12-21T12:12:56.753Z,8.58
2018-12-21T12:13:56.845Z,8.52
2018-12-21T12:14:57.564Z,8.57
2018-12-21T12:15:56.816Z,8.59
2018-12-21T12:16:59.032Z,8.57
2018-12-21T12:17:56.878Z,8.57
2018-12-21T12:18:56.817Z,8.6
2018-12-21T12:19:56.773Z,8.59
2018-12-21T12:20:57.104Z,8.62
2018-12-21T12:21:56.826Z,8.6
2018-12-21T12:22:56.795Z,8.59
2018-12-21T12:23:56.858Z,8.61
2018-12-21T12:24:56.796Z,8.63
2018-12-21T12:25:56.820Z,8.61
2018-12-21T12:26:57.072Z,8.61
2018-12-21T12:27:56.881Z,8.62
2018-12-21T12:28:56.733Z,8.62
2018-12-21T12:29:56.793Z,8.66
2018-12-21T12:30:57.208Z,8.66
2018-12-21T12:31:56.879Z,8.64
2018-12-21T12:32:56.782Z,8.67
2018-12-21T12:33:57.195Z,8.66
2018-12-21T12:34:56.896Z,8.68
2018-12-21T12:35:56.794Z,8.71
2018-12-21T12:36:58.270Z,8.7
2018-12-21T12:37:56.720Z,8.69
2018-12-21T12:38:56.676Z,8.7
2018-12-21T12:39:56.768Z,8.73
2018-12-21T12:40:56.688Z,8.75
2018-12-21T12:41:56.665Z,8.78
2018-12-21T12:42:56.670Z,8.74
2018-12-21T12:43:57.105Z,8.74
2018-12-21T12:44:56.672Z,8.75
2018-12-21T12:45:56.649Z,8.78
2018-12-21T12:46:56.683Z,8.77
2018-12-21T12:47:56.905Z,8.71
2018-12-21T12:48:56.643Z,8.75
2018-12-21T12:49:56.675Z,8.7
2018-12-21T12:50:56.726Z,8.71
2018-12-21T12:51:56.825Z,8.75
2018-12-21T12:52:56.658Z,8.77
2018-12-21T12:53:56.812Z,8.8
2018-12-21T12:55:03.470Z,8.83
2018-12-21T12:55:57.039Z,8.85
2018-12-21T12:56:56.758Z,8.81
2018-12-21T12:57:56.724Z,8.81
2018-12-21T12:58:56.725Z,8.82
2018-12-21T12:59:56.845Z,8.87
2018-12-21T13:00:56.856Z,8.86
2018-12-21T13:01:58.739Z,8.87
2018-12-21T13:02:57.084Z,8.84
2018-12-21T13:03:57.076Z,8.87
2018-12-21T13:04:56.778Z,8.83
2018-12-21T13:05:56.937Z,8.91
2018-12-21T13:06:56.815Z,8.9
2018-12-21T13:07:57.457Z,8.91
2018-12-21T13:08:56.665Z,8.9
2018-12-21T13:09:56.788Z,8.92
2018-12-21T13:10:56.706Z,8.92
2018-12-21T13:11:56.977Z,8.91
2018-12-21T13:12:57.021Z,8.89
2018-12-21T13:13:57.149Z,8.95
2018-12-21T13:14:56.971Z,8.91
2018-12-21T13:15:57.057Z,8.94
2018-12-21T13:16:56.809Z,8.95
2018-12-21T13:17:56.855Z,8.95
2018-12-21T13:18:56.946Z,8.91
2018-12-21T13:19:57.149Z,8.97
2018-12-21T13:20:56.638Z,8.98
2018-12-21T13:21:56.816Z,8.93